Time;durP1;ratioP1;P1;durP2;ratioP2;P2;SDS_P1;SDS_P2;PMS_P1;PMS_P2;Temp;Humidity;BMP_temperature;BMP_pressure;BME280_temperature;BME280_humidity;BME280_pressure;Samples;Min_cycle;Max_cycle;Signal;HPM_P1;HPM_P2
2021/12/23 00:02:02;;;;;;;6.82;3.42;;;-2.20;99.90;;;;;;5011463;28;20049;-83
2021/12/23 00:04:28;;;;;;;2.58;2.47;;;-2.20;99.90;;;;;;4994911;28;20066;-83
2021/12/23 00:06:54;;;;;;;3.97;3.65;;;-2.20;99.90;;;;;;5012872;28;20042;-84
2021/12/23 00:09:21;;;;;;;6.57;4.93;;;-2.10;99.90;;;;;;4995080;28;20049;-84
2021/12/23 00:11:47;;;;;;;1.77;1.67;;;-2.10;99.90;;;;;;4995066;28;20593;-84
2021/12/23 00:14:13;;;;;;;10.02;1.67;;;-2.10;99.90;;;;;;4995302;28;20042;-84
2021/12/23 00:16:55;;;;;;;11.88;2.65;;;-2.10;99.90;;;;;;5011374;28;20137;-84
2021/12/23 00:24:39;;;;;;;3.88;2.95;;;-2.10;99.90;;;;;;5016679;28;20065;-83
2021/12/23 00:27:06;;;;;;;3.40;3.30;;;-2.10;99.90;;;;;;5015304;28;20522;-83
2021/12/23 00:29:32;;;;;;;4.13;2.95;;;-2.10;99.90;;;;;;5015275;28;20486;-84
2021/12/23 00:31:59;;;;;;;0.93;0.93;;;-2.00;99.90;;;;;;5015335;28;20125;-83
2021/12/23 00:34:25;;;;;;;24.85;3.78;;;-2.00;99.90;;;;;;4998919;28;20442;-83
2021/12/23 00:36:52;;;;;;;4.38;2.53;;;-2.00;99.90;;;;;;5015040;28;20130;-82
2021/12/23 00:39:18;;;;;;;2.33;2.22;;;-2.00;99.90;;;;;;5016200;28;20045;-83
2021/12/23 00:41:45;;;;;;;1.85;1.75;;;-2.00;99.90;;;;;;5016266;28;20069;-83
2021/12/23 00:44:12;;;;;;;2.30;1.02;;;-1.90;99.90;;;;;;4998713;28;20050;-83
2021/12/23 00:46:37;;;;;;;2.22;2.13;;;-1.90;99.90;;;;;;4998216;28;20053;-84
2021/12/23 00:49:05;;;;;;;2.55;2.45;;;-1.90;99.90;;;;;;5014694;28;20050;-83
2021/12/23 00:51:31;;;;;;;1.45;1.35;;;-1.90;99.90;;;;;;4998505;28;20073;-82
2021/12/23 00:54:04;;;;;;;2.45;2.35;;;-1.90;99.90;;;;;;4998636;28;20044;-82
2021/12/23 00:56:31;;;;;;;12.77;4.30;;;-1.90;99.90;;;;;;5014577;28;20133;-81
2021/12/23 00:58:57;;;;;;;3.92;3.67;;;-1.80;99.90;;;;;;5016267;28;20116;-81
2021/12/23 01:01:22;;;;;;;4.57;2.47;;;-1.80;99.90;;;;;;5015890;28;20557;-81
2021/12/23 01:03:48;;;;;;;2.50;2.25;;;-1.80;99.90;;;;;;4998288;28;20038;-82
2021/12/23 01:06:14;;;;;;;2.95;2.47;;;-1.80;99.90;;;;;;5010547;28;20053;-81
2021/12/23 01:08:39;;;;;;;5.05;2.00;;;-1.80;99.90;;;;;;4998386;28;20048;-82
2021/12/23 01:11:05;;;;;;;2.90;2.70;;;-1.70;99.90;;;;;;4998421;28;20053;-82
2021/12/23 01:13:30;;;;;;;1.10;1.10;;;-1.70;99.90;;;;;;4998319;28;20053;-81
2021/12/23 01:18:24;;;;;;;11.95;4.55;;;-1.70;99.90;;;;;;4997604;28;20054;-79
2021/12/23 01:21:02;;;;;;;1.58;1.48;;;-1.70;99.90;;;;;;5014367;28;20045;-80
2021/12/23 01:23:28;;;;;;;10.57;2.83;;;-1.70;99.90;;;;;;5014254;28;20056;-81
2021/12/23 01:25:53;;;;;;;2.33;2.15;;;-1.60;99.90;;;;;;5015773;28;20125;-80
2021/12/23 01:28:20;;;;;;;1.30;1.30;;;-1.60;99.90;;;;;;4997743;28;20038;-82
2021/12/23 01:30:45;;;;;;;1.45;1.40;;;-1.60;99.90;;;;;;5015681;28;20071;-82
2021/12/23 01:33:12;;;;;;;9.38;4.40;;;-1.60;99.90;;;;;;5015068;28;20046;-83
2021/12/23 01:35:39;;;;;;;3.15;2.83;;;-1.60;99.90;;;;;;5014872;28;20548;-79
2021/12/23 01:38:06;;;;;;;7.13;2.55;;;-1.50;99.90;;;;;;5013862;28;20041;-79
2021/12/23 01:40:32;;;;;;;8.20;2.28;;;-1.50;99.90;;;;;;5014076;28;20044;-79
2021/12/23 01:42:58;;;;;;;7.45;3.35;;;-1.50;99.90;;;;;;5013928;28;20100;-79
2021/12/23 01:45:27;;;;;;;3.75;3.30;;;-1.50;99.90;;;;;;5013830;28;20042;-79
2021/12/23 01:47:53;;;;;;;4.10;1.90;;;-1.50;99.90;;;;;;5000829;28;20407;-79
2021/12/23 01:50:26;;;;;;;9.70;2.22;;;-1.50;99.90;;;;;;4995632;28;20379;-79
2021/12/23 01:52:59;;;;;;;3.13;2.70;;;-1.40;99.90;;;;;;4978227;28;20054;-79
2021/12/23 01:55:26;;;;;;;5.18;1.52;;;-1.40;99.90;;;;;;4994224;28;20046;-80
2021/12/23 01:57:52;;;;;;;2.72;2.63;;;-1.40;99.90;;;;;;4993959;28;20054;-81
2021/12/23 02:00:22;;;;;;;5.22;5.00;;;-1.40;99.90;;;;;;4995479;28;20046;-80
2021/12/23 02:02:50;;;;;;;1.67;1.58;;;-1.40;99.90;;;;;;4977587;28;20081;-80
2021/12/23 02:05:16;;;;;;;2.67;2.47;;;-1.40;99.90;;;;;;4987397;28;20059;-80
2021/12/23 02:07:42;;;;;;;2.60;1.98;;;-1.40;99.90;;;;;;4975763;28;20042;-78
2021/12/23 02:10:08;;;;;;;0.70;0.68;;;-1.30;99.90;;;;;;4958370;28;20058;-77
2021/12/23 02:12:34;;;;;;;2.60;2.38;;;-1.30;99.90;;;;;;4975820;28;20039;-79
2021/12/23 02:15:00;;;;;;;6.38;2.15;;;-1.30;99.90;;;;;;4975746;28;20447;-80
2021/12/23 02:17:25;;;;;;;2.45;2.17;;;-1.30;99.90;;;;;;4975285;28;20057;-82
2021/12/23 02:19:55;;;;;;;4.13;2.58;;;-1.30;99.90;;;;;;4988950;28;20078;-80
2021/12/23 02:22:20;;;;;;;8.13;5.32;;;-1.30;99.90;;;;;;4994504;28;20505;-79
2021/12/23 02:24:46;;;;;;;5.38;2.45;;;-1.30;99.90;;;;;;4994927;28;20038;-79
2021/12/23 02:27:12;;;;;;;3.50;2.22;;;-1.30;99.90;;;;;;4993524;28;20506;-79
2021/12/23 02:29:38;;;;;;;2.88;2.03;;;-1.30;99.90;;;;;;4977177;28;20070;-79
2021/12/23 02:32:04;;;;;;;2.08;1.98;;;-1.20;99.90;;;;;;4994313;28;20080;-80
2021/12/23 02:34:30;;;;;;;2.65;2.55;;;-1.30;99.90;;;;;;4993124;28;20064;-79
2021/12/23 02:36:58;;;;;;;1.48;1.48;;;-1.30;99.90;;;;;;4993163;28;20133;-79
2021/12/23 02:39:26;;;;;;;2.85;2.65;;;-1.30;99.90;;;;;;4994281;28;20494;-79
2021/12/23 02:41:52;;;;;;;1.27;1.25;;;-1.30;99.90;;;;;;4976959;28;20053;-80
2021/12/23 02:44:18;;;;;;;4.70;2.45;;;-1.30;99.90;;;;;;4976611;28;20046;-79
2021/12/23 02:46:45;;;;;;;3.92;2.55;;;-1.20;99.90;;;;;;4993416;28;20117;-79
2021/12/23 02:49:11;;;;;;;6.22;4.63;;;-1.30;99.90;;;;;;4994178;28;20044;-79
2021/12/23 02:51:37;;;;;;;1.20;1.20;;;-1.30;99.90;;;;;;4994495;28;20165;-79
2021/12/23 02:54:03;;;;;;;2.72;2.63;;;-1.30;99.90;;;;;;4993941;28;20411;-80
2021/12/23 02:56:29;;;;;;;1.73;1.73;;;-1.30;99.90;;;;;;4992689;28;20050;-79
2021/12/23 02:58:55;;;;;;;4.00;3.05;;;-1.30;99.90;;;;;;4976694;28;20050;-79
2021/12/23 03:01:22;;;;;;;9.48;1.38;;;-1.20;99.90;;;;;;4993933;28;20065;-78
2021/12/23 03:03:48;;;;;;;2.65;1.27;;;-1.30;99.90;;;;;;4976794;28;20510;-79
2021/12/23 03:06:18;;;;;;;2.47;1.95;;;-1.30;99.90;;;;;;4990742;28;20602;-79
2021/12/23 03:08:56;;;;;;;1.65;1.52;;;-1.30;99.90;;;;;;5012531;28;20057;-79
2021/12/23 03:11:24;;;;;;;3.05;2.78;;;-1.30;99.90;;;;;;5013594;28;20037;-78
2021/12/23 03:13:51;;;;;;;2.88;2.55;;;-1.30;99.90;;;;;;4996001;28;20113;-78
2021/12/23 03:16:33;;;;;;;3.33;3.10;;;-1.30;99.90;;;;;;5013094;28;20172;-79
2021/12/23 03:18:58;;;;;;;3.60;3.30;;;-1.30;99.90;;;;;;5013345;28;20045;-79
2021/12/23 03:21:24;;;;;;;5.78;3.13;;;-1.30;99.90;;;;;;4995660;28;20292;-78
2021/12/23 03:23:51;;;;;;;7.03;5.20;;;-1.30;99.90;;;;;;5012084;28;20070;-78
2021/12/23 03:26:17;;;;;;;4.72;3.83;;;-1.30;99.90;;;;;;4995108;28;20042;-79
2021/12/23 03:28:43;;;;;;;4.63;4.18;;;-1.30;99.90;;;;;;5012148;28;20042;-78
2021/12/23 03:31:09;;;;;;;12.90;4.82;;;-1.30;99.90;;;;;;5012230;28;20057;-78
2021/12/23 03:33:35;;;;;;;7.30;2.00;;;-1.30;99.90;;;;;;4995172;28;20054;-79
2021/12/23 03:36:00;;;;;;;2.28;2.17;;;-1.30;99.90;;;;;;5012071;28;20046;-79
2021/12/23 03:38:27;;;;;;;4.32;4.03;;;-1.30;99.90;;;;;;5012526;28;20443;-79
2021/12/23 03:40:53;;;;;;;3.13;2.95;;;-1.30;99.90;;;;;;5012075;28;20064;-79
2021/12/23 03:43:20;;;;;;;3.72;2.58;;;-1.30;99.90;;;;;;5013294;28;20053;-79
2021/12/23 03:45:48;;;;;;;4.90;3.15;;;-1.30;99.90;;;;;;5012709;28;20557;-79
2021/12/23 03:48:15;;;;;;;3.22;3.03;;;-1.30;99.90;;;;;;5011383;28;20053;-79
2021/12/23 03:50:41;;;;;;;1.70;1.70;;;-1.30;99.90;;;;;;4995537;28;20112;-79
2021/12/23 03:53:07;;;;;;;4.07;3.47;;;-1.30;99.90;;;;;;4995591;28;20057;-79
2021/12/23 03:55:32;;;;;;;2.50;2.40;;;-1.30;99.90;;;;;;5013376;28;20137;-79
2021/12/23 03:57:58;;;;;;;2.50;2.35;;;-1.30;99.90;;;;;;5013103;28;20498;-79
2021/12/23 04:00:25;;;;;;;1.38;1.27;;;-1.30;99.90;;;;;;5013263;28;20046;-79
2021/12/23 04:02:52;;;;;;;1.25;1.25;;;-1.30;99.90;;;;;;5013257;28;20042;-79
2021/12/23 04:05:18;;;;;;;4.90;2.55;;;-1.30;99.90;;;;;;5011614;28;20068;-79
2021/12/23 04:07:44;;;;;;;11.50;2.75;;;-1.30;99.90;;;;;;5011655;28;20104;-78
2021/12/23 04:10:14;;;;;;;10.15;3.97;;;-1.30;99.90;;;;;;5013388;28;20045;-79
2021/12/23 04:12:41;;;;;;;2.83;0.93;;;-1.20;99.90;;;;;;4995804;28;20121;-81
2021/12/23 04:15:07;;;;;;;1.77;1.48;;;-1.30;99.90;;;;;;5012971;28;20037;-81
2021/12/23 04:17:33;;;;;;;4.72;4.43;;;-1.20;99.90;;;;;;4995129;28;20286;-81
2021/12/23 04:20:13;;;;;;;4.22;2.85;;;-1.20;99.90;;;;;;4995221;28;20081;-82
2021/12/23 04:22:38;;;;;;;1.38;1.33;;;-1.20;99.90;;;;;;4995372;28;20045;-82
2021/12/23 04:25:04;;;;;;;2.50;2.35;;;-1.20;99.90;;;;;;4995488;28;20125;-79
2021/12/23 04:27:30;;;;;;;11.20;3.33;;;-1.20;99.90;;;;;;5011577;28;20545;-79
2021/12/23 04:29:55;;;;;;;8.25;4.03;;;-1.20;99.90;;;;;;5013003;28;20042;-79
2021/12/23 04:32:21;;;;;;;3.80;2.17;;;-1.20;99.90;;;;;;5012978;28;20046;-79
2021/12/23 04:34:47;;;;;;;0.68;0.68;;;-1.20;99.90;;;;;;5011695;28;20402;-79
2021/12/23 04:37:13;;;;;;;1.45;1.45;;;-1.10;99.90;;;;;;4995124;28;20398;-79
2021/12/23 04:39:39;;;;;;;1.58;1.58;;;-1.20;99.90;;;;;;4995268;28;20042;-79
2021/12/23 04:42:05;;;;;;;1.63;1.58;;;-1.20;99.90;;;;;;5012960;28;20046;-79
2021/12/23 04:44:31;;;;;;;2.25;2.15;;;-1.10;99.90;;;;;;5012825;28;20394;-79
2021/12/23 04:46:57;;;;;;;3.22;3.03;;;-1.10;99.90;;;;;;5012632;28;20406;-79
2021/12/23 04:49:23;;;;;;;7.03;5.82;;;-1.10;99.90;;;;;;5012649;28;20453;-80
2021/12/23 04:51:49;;;;;;;3.75;2.75;;;-1.10;99.90;;;;;;4995279;28;20136;-79
2021/12/23 04:54:14;;;;;;;10.63;5.30;;;-1.10;99.90;;;;;;5011272;28;20125;-79
2021/12/23 04:56:40;;;;;;;3.17;2.97;;;-1.10;99.90;;;;;;4994909;28;20137;-79
2021/12/23 04:59:06;;;;;;;1.13;1.13;;;-1.10;99.90;;;;;;5012738;28;20397;-79
2021/12/23 05:01:32;;;;;;;1.70;1.63;;;-1.10;99.90;;;;;;4994840;28;20376;-80
2021/12/23 05:04:00;;;;;;;1.77;1.73;;;-1.10;99.90;;;;;;5012762;28;20049;-80
2021/12/23 05:06:26;;;;;;;5.40;5.07;;;-1.10;99.90;;;;;;5011111;28;20066;-80
2021/12/23 05:08:52;;;;;;;0.40;0.40;;;-1.00;99.90;;;;;;5012447;28;20042;-79
2021/12/23 05:11:18;;;;;;;2.92;2.72;;;-1.10;99.90;;;;;;5015913;28;20052;-80
2021/12/23 05:13:47;;;;;;;3.03;2.92;;;-1.00;99.90;;;;;;5015731;28;20474;-80
2021/12/23 05:16:14;;;;;;;3.17;2.95;;;-1.00;99.90;;;;;;4998207;28;20042;-79
2021/12/23 05:18:40;;;;;;;1.65;1.65;;;-1.00;99.90;;;;;;5016146;28;20050;-79
2021/12/23 05:21:05;;;;;;;5.15;3.45;;;-1.00;99.90;;;;;;5015903;28;20576;-79
2021/12/23 05:23:32;;;;;;;2.63;2.20;;;-1.00;99.90;;;;;;4997992;28;20037;-78
2021/12/23 05:25:57;;;;;;;5.38;4.82;;;-1.00;99.90;;;;;;5015934;28;20081;-79
2021/12/23 05:28:23;;;;;;;1.45;1.45;;;-1.00;99.90;;;;;;5015634;28;20092;-79
2021/12/23 05:30:49;;;;;;;5.50;3.20;;;-1.00;99.90;;;;;;5015843;28;20470;-79
2021/12/23 05:33:15;;;;;;;9.02;8.18;;;-1.00;99.90;;;;;;4997773;28;20541;-79
2021/12/23 05:35:40;;;;;;;8.77;7.78;;;-1.00;99.90;;;;;;4998213;28;20042;-79
2021/12/23 05:38:06;;;;;;;3.75;3.45;;;-0.90;99.90;;;;;;5015622;28;20049;-79
2021/12/23 05:40:33;;;;;;;4.13;1.60;;;-0.90;99.90;;;;;;5015610;28;20049;-78
2021/12/23 05:42:59;;;;;;;1.23;1.23;;;-0.90;99.90;;;;;;5015611;28;20553;-79
2021/12/23 05:45:25;;;;;;;2.85;2.75;;;-0.90;99.90;;;;;;5014317;28;20037;-79
2021/12/23 05:47:51;;;;;;;16.13;4.03;;;-0.90;99.90;;;;;;5015128;28;20100;-79
2021/12/23 05:50:19;;;;;;;3.38;2.63;;;-0.90;99.90;;;;;;5013963;28;20542;-79
2021/12/23 05:52:45;;;;;;;6.30;4.78;;;-0.90;99.90;;;;;;4997797;28;20510;-79
2021/12/23 05:55:12;;;;;;;2.10;1.95;;;-0.90;99.90;;;;;;5013970;28;20052;-79
2021/12/23 05:57:38;;;;;;;11.32;3.22;;;-0.90;99.90;;;;;;4997295;28;20090;-79
2021/12/23 06:00:08;;;;;;;5.38;3.90;;;-0.90;99.90;;;;;;5013721;28;20104;-80
2021/12/23 06:02:34;;;;;;;0.73;0.73;;;-0.80;99.90;;;;;;5014758;28;20046;-79
2021/12/23 06:05:00;;;;;;;2.88;2.78;;;-0.80;99.90;;;;;;4980935;28;20066;-79
2021/12/23 06:07:25;;;;;;;1.27;1.15;;;-0.80;99.90;;;;;;5014947;28;20093;-79
2021/12/23 06:09:51;;;;;;;5.00;3.13;;;-0.90;99.90;;;;;;5014885;28;20114;-79
2021/12/23 06:12:17;;;;;;;1.63;1.52;;;-0.80;99.90;;;;;;4997166;28;20058;-79
2021/12/23 06:14:42;;;;;;;1.30;1.30;;;-0.80;99.90;;;;;;5015038;28;20042;-80
2021/12/23 06:17:08;;;;;;;4.18;1.75;;;-0.80;99.90;;;;;;5013477;28;20140;-80
2021/12/23 06:19:34;;;;;;;3.60;3.08;;;-0.80;99.90;;;;;;5014340;28;20078;-80
2021/12/23 06:21:59;;;;;;;4.10;3.28;;;-0.80;99.90;;;;;;4996897;28;20057;-80
2021/12/23 06:24:25;;;;;;;4.20;3.83;;;-0.80;99.90;;;;;;4996844;28;20038;-80
2021/12/23 06:26:51;;;;;;;2.90;2.53;;;-0.80;99.90;;;;;;5014672;28;20042;-80
2021/12/23 06:29:16;;;;;;;3.83;2.95;;;-0.80;99.90;;;;;;5014619;28;20041;-80
2021/12/23 06:31:42;;;;;;;1.88;1.85;;;-0.80;99.90;;;;;;5014277;28;20042;-80
2021/12/23 06:34:11;;;;;;;1.13;1.13;;;-0.80;99.90;;;;;;5014226;28;20045;-80
2021/12/23 06:36:36;;;;;;;3.05;1.55;;;-0.70;99.90;;;;;;5014382;28;20046;-80
2021/12/23 06:39:04;;;;;;;3.50;1.95;;;-0.80;99.90;;;;;;5014417;28;20068;-80
2021/12/23 06:41:30;;;;;;;5.40;3.15;;;-0.80;99.90;;;;;;5014363;28;20064;-80
2021/12/23 06:43:56;;;;;;;3.10;2.22;;;-0.70;99.90;;;;;;5014332;28;20034;-80
2021/12/23 06:46:21;;;;;;;6.82;2.85;;;-0.70;99.90;;;;;;5013052;28;20088;-80
2021/12/23 06:48:47;;;;;;;2.92;1.85;;;-0.70;99.90;;;;;;5014231;28;20045;-80
2021/12/23 06:51:13;;;;;;;3.20;2.88;;;-0.70;99.90;;;;;;4996737;28;20092;-80
2021/12/23 06:53:38;;;;;;;5.40;3.42;;;-0.70;99.90;;;;;;5012956;28;20422;-80
2021/12/23 06:56:04;;;;;;;3.63;3.15;;;-0.60;99.90;;;;;;5012749;28;20099;-80
2021/12/23 06:58:32;;;;;;;7.13;3.05;;;-0.60;99.90;;;;;;4996589;28;20400;-80
2021/12/23 07:00:58;;;;;;;1.05;1.05;;;-0.60;99.90;;;;;;5014206;28;20050;-80
2021/12/23 07:03:40;;;;;;;4.05;2.40;;;-0.60;99.90;;;;;;4996229;28;20060;-80
2021/12/23 07:06:07;;;;;;;3.97;3.67;;;-0.60;99.90;;;;;;4995978;28;20085;-80
2021/12/23 07:08:35;;;;;;;13.30;4.38;;;-0.60;99.90;;;;;;5013904;28;20053;-81
2021/12/23 07:11:00;;;;;;;2.28;2.17;;;-0.60;99.90;;;;;;5012934;28;20046;-80
2021/12/23 07:13:26;;;;;;;5.75;5.35;;;-0.60;99.90;;;;;;5012282;28;20052;-81
2021/12/23 07:15:53;;;;;;;4.97;4.47;;;-0.50;99.90;;;;;;5013437;28;20048;-80
2021/12/23 07:18:18;;;;;;;6.90;5.65;;;-0.60;99.90;;;;;;5013666;28;20046;-81
2021/12/23 07:20:44;;;;;;;3.33;3.00;;;-0.50;99.90;;;;;;4996098;28;20089;-81
2021/12/23 07:23:10;;;;;;;6.63;2.30;;;-0.60;99.90;;;;;;5013812;28;20046;-80
2021/12/23 07:25:35;;;;;;;4.55;2.58;;;-0.50;99.90;;;;;;5013697;28;20045;-81
2021/12/23 07:28:01;;;;;;;13.70;11.57;;;-0.50;99.90;;;;;;4995693;28;20054;-81
2021/12/23 07:30:27;;;;;;;6.57;4.20;;;-0.50;99.90;;;;;;4995750;28;20084;-80
2021/12/23 07:32:54;;;;;;;16.80;4.47;;;-0.50;99.90;;;;;;5011547;28;20085;-81
2021/12/23 07:35:19;;;;;;;2.97;2.08;;;-0.50;99.90;;;;;;5013492;28;20033;-81
2021/12/23 07:37:46;;;;;;;5.63;3.97;;;-0.50;99.90;;;;;;5013373;28;20493;-80
2021/12/23 07:40:14;;;;;;;1.33;1.33;;;-0.50;99.90;;;;;;5012299;28;20056;-81
2021/12/23 07:42:51;;;;;;;9.35;8.57;;;-0.50;99.90;;;;;;5013541;28;20056;-81
2021/12/23 07:45:17;;;;;;;3.53;2.35;;;-0.40;99.90;;;;;;5013311;28;20079;-80
2021/12/23 07:47:42;;;;;;;6.43;3.75;;;-0.50;99.90;;;;;;5013370;28;20120;-81
2021/12/23 07:50:08;;;;;;;6.13;1.95;;;-0.50;99.90;;;;;;5012929;28;20120;-81
2021/12/23 07:52:35;;;;;;;21.15;2.92;;;-0.50;99.90;;;;;;4995388;28;20640;-81
2021/12/23 07:55:01;;;;;;;2.90;2.80;;;-0.50;99.90;;;;;;4995358;28;20045;-81
2021/12/23 07:57:26;;;;;;;8.82;5.03;;;-0.50;99.90;;;;;;4995648;28;20049;-81
2021/12/23 07:59:52;;;;;;;2.95;2.83;;;-0.50;99.90;;;;;;5011849;28;20046;-80
2021/12/23 08:02:18;;;;;;;3.60;3.35;;;-0.50;99.90;;;;;;4995522;28;20050;-80
2021/12/23 08:04:44;;;;;;;1.50;1.50;;;-0.50;99.90;;;;;;4993143;28;20112;-80
2021/12/23 08:07:09;;;;;;;6.70;4.15;;;-0.50;99.90;;;;;;4995268;28;20414;-81
2021/12/23 08:09:35;;;;;;;5.97;1.60;;;-0.50;99.90;;;;;;4995563;28;20049;-81
2021/12/23 08:12:05;;;;;;;2.35;2.25;;;-0.50;99.90;;;;;;4995547;28;20038;-81
2021/12/23 08:14:31;;;;;;;3.10;2.80;;;-0.50;99.90;;;;;;5027966;28;20038;-80
2021/12/23 08:16:57;;;;;;;1.67;1.58;;;-0.50;99.90;;;;;;5011329;28;20456;-80
2021/12/23 08:19:22;;;;;;;2.88;2.00;;;-0.40;99.90;;;;;;5013006;28;20054;-80
2021/12/23 08:21:48;;;;;;;7.35;6.60;;;-0.50;99.90;;;;;;5013190;28;20045;-81
2021/12/23 08:24:14;;;;;;;6.28;5.68;;;-0.50;99.90;;;;;;4995174;28;20049;-80
2021/12/23 08:26:41;;;;;;;4.13;3.83;;;-0.50;99.90;;;;;;4995176;28;20135;-80
2021/12/23 08:29:08;;;;;;;5.72;3.00;;;-0.40;99.90;;;;;;5011468;28;20046;-80
2021/12/23 08:31:34;;;;;;;2.42;2.22;;;-0.50;99.90;;;;;;5011612;28;20376;-80
2021/12/23 08:34:00;;;;;;;7.93;1.30;;;-0.40;99.90;;;;;;5012961;28;20053;-81
2021/12/23 08:36:26;;;;;;;3.33;2.95;;;-0.40;99.90;;;;;;5027749;28;20061;-81
2021/12/23 08:38:51;;;;;;;7.78;5.40;;;-0.40;99.90;;;;;;5011441;28;20124;-81
2021/12/23 08:41:17;;;;;;;8.32;3.22;;;-0.40;99.90;;;;;;4995046;28;20042;-80
2021/12/23 08:43:44;;;;;;;10.15;4.93;;;-0.30;99.90;;;;;;5028841;28;20050;-80
2021/12/23 08:46:10;;;;;;;3.00;2.83;;;-0.30;99.90;;;;;;5015167;28;20084;-80
2021/12/23 08:48:37;;;;;;;8.15;7.45;;;-0.30;99.90;;;;;;4998928;28;20046;-81
2021/12/23 08:51:03;;;;;;;2.75;2.55;;;-0.30;99.90;;;;;;4998745;28;20042;-81
2021/12/23 08:53:29;;;;;;;4.90;4.70;;;-0.20;99.90;;;;;;5014904;28;20045;-80
2021/12/23 08:55:55;;;;;;;2.92;2.67;;;-0.30;99.90;;;;;;5016455;28;20042;-80
2021/12/23 08:58:20;;;;;;;8.90;4.68;;;-0.30;99.90;;;;;;5015019;28;20153;-80
2021/12/23 09:00:46;;;;;;;4.13;2.65;;;-0.20;99.90;;;;;;5016277;28;20430;-80
2021/12/23 09:03:12;;;;;;;6.28;2.95;;;-0.20;99.90;;;;;;5016316;28;20088;-80
2021/12/23 09:05:40;;;;;;;3.72;2.25;;;-0.10;99.90;;;;;;5015855;28;20057;-80
2021/12/23 09:08:06;;;;;;;4.95;4.07;;;-0.20;99.90;;;;;;5016097;28;20049;-81
2021/12/23 09:10:33;;;;;;;5.15;1.75;;;-0.20;99.90;;;;;;5015958;28;20125;-81
2021/12/23 09:12:59;;;;;;;10.35;4.78;;;0.00;99.90;;;;;;5016098;28;20041;-81
2021/12/23 09:15:25;;;;;;;5.78;3.95;;;-0.10;99.90;;;;;;5014479;28;20189;-80
2021/12/23 09:17:51;;;;;;;2.90;2.75;;;-0.10;99.90;;;;;;5014336;28;20132;-80
2021/12/23 09:20:19;;;;;;;5.53;5.07;;;-0.10;99.90;;;;;;5015893;28;20180;-80
2021/12/23 09:22:45;;;;;;;8.18;3.97;;;-0.10;99.90;;;;;;4997955;28;20474;-80
2021/12/23 09:25:22;;;;;;;8.93;4.60;;;-0.10;99.90;;;;;;5015923;28;20061;-81
2021/12/23 09:28:01;;;;;;;2.97;1.50;;;-0.10;99.90;;;;;;5015486;28;20513;-80
2021/12/23 09:33:12;;;;;;;8.07;1.80;;;0.00;99.90;;;;;;4997822;28;20184;-80
2021/12/23 09:35:39;;;;;;;1.92;1.83;;;-0.10;99.90;;;;;;5015814;28;20100;-80
2021/12/23 09:38:05;;;;;;;12.13;9.02;;;0.00;99.90;;;;;;5015146;28;20085;-80
2021/12/23 09:40:33;;;;;;;3.35;3.13;;;-0.10;99.90;;;;;;4997647;28;20049;-80
2021/12/23 09:43:08;;;;;;;7.30;2.92;;;-0.10;99.90;;;;;;4997617;28;20049;-80
2021/12/23 09:45:37;;;;;;;4.03;1.95;;;0.00;99.90;;;;;;5030733;28;20042;-80
2021/12/23 09:48:04;;;;;;;10.85;2.33;;;0.00;99.90;;;;;;5015298;28;20074;-80
2021/12/23 09:50:34;;;;;;;6.40;3.97;;;0.00;99.90;;;;;;5013840;28;20046;-80
2021/12/23 09:53:02;;;;;;;14.98;3.05;;;0.00;99.90;;;;;;4997608;28;20491;-81
2021/12/23 09:55:29;;;;;;;8.68;6.20;;;0.00;99.90;;;;;;4996964;28;20042;-80
2021/12/23 09:57:58;;;;;;;4.65;4.45;;;0.00;99.90;;;;;;5014806;28;20536;-80
2021/12/23 10:00:28;;;;;;;4.25;3.97;;;0.00;99.90;;;;;;5013955;28;20387;-80
2021/12/23 10:02:54;;;;;;;24.55;11.15;;;0.10;99.90;;;;;;5015098;28;20103;-80
2021/12/23 10:05:23;;;;;;;10.55;3.33;;;0.10;99.90;;;;;;5030094;28;20092;-80
2021/12/23 10:07:50;;;;;;;5.40;4.90;;;0.10;99.90;;;;;;4997515;28;20042;-81
2021/12/23 10:10:36;;;;;;;5.03;4.57;;;0.10;99.90;;;;;;5015036;28;20096;-81
2021/12/23 10:26:52;;;;;;;10.13;4.18;;;0.10;99.90;;;;;;5013751;28;20049;-81
2021/12/23 10:30:39;;;;;;;17.45;3.58;;;0.20;99.90;;;;;;4996759;28;20184;-80
2021/12/23 10:38:42;;;;;;;7.88;3.50;;;0.20;99.90;;;;;;5014165;28;20581;-81
2021/12/23 10:41:10;;;;;;;6.55;5.65;;;0.20;99.90;;;;;;5012816;28;20049;-81
2021/12/23 10:43:42;;;;;;;10.52;6.25;;;0.20;99.90;;;;;;5029647;28;20422;-81
2021/12/23 10:46:14;;;;;;;3.92;1.35;;;0.20;99.90;;;;;;5014359;28;20038;-80
2021/12/23 10:52:03;;;;;;;35.53;7.15;;;0.30;99.90;;;;;;5014382;28;20122;-81
2021/12/23 11:00:20;;;;;;;7.90;3.97;;;0.30;99.90;;;;;;4996194;28;20455;-81
2021/12/23 11:03:16;;;;;;;5.47;4.97;;;0.30;99.90;;;;;;4996137;28;20038;-81
2021/12/23 11:05:53;;;;;;;3.60;3.30;;;0.30;99.90;;;;;;4995839;28;20050;-81
2021/12/23 11:36:45;;;;;;;7.38;6.65;;;0.30;99.90;;;;;;4972117;28;20047;-82
2021/12/23 11:39:10;;;;;;;15.70;4.47;;;0.30;99.90;;;;;;4970715;28;20090;-82
2021/12/23 11:41:47;;;;;;;23.05;5.57;;;0.30;99.90;;;;;;4955939;28;20058;-82
2021/12/23 11:44:14;;;;;;;9.75;4.43;;;0.30;99.90;;;;;;4955882;28;20055;-82
2021/12/23 11:46:52;;;;;;;2.60;2.50;;;0.30;99.90;;;;;;4955964;28;20046;-82
2021/12/23 11:49:19;;;;;;;15.32;13.25;;;0.30;99.90;;;;;;4994507;28;20061;-82
2021/12/23 11:54:18;;;;;;;17.52;8.73;;;0.30;99.90;;;;;;5013088;28;20049;-83
2021/12/23 11:56:51;;;;;;;24.98;9.10;;;0.30;99.90;;;;;;4995093;28;20119;-83
2021/12/23 11:59:19;;;;;;;12.38;4.93;;;0.30;99.90;;;;;;4995351;28;20498;-83
2021/12/23 12:01:53;;;;;;;12.65;5.63;;;0.30;99.90;;;;;;4995265;28;20072;-83
2021/12/23 12:04:24;;;;;;;17.08;10.73;;;0.30;99.90;;;;;;5027965;28;20078;-82
2021/12/23 12:06:51;;;;;;;7.70;7.23;;;0.30;99.90;;;;;;5010606;28;20065;-83
2021/12/23 12:09:31;;;;;;;11.90;4.65;;;0.30;99.90;;;;;;4993496;28;20042;-85
2021/12/23 12:11:59;;;;;;;7.32;6.63;;;0.30;99.90;;;;;;4975725;28;20050;-82
2021/12/23 12:14:40;;;;;;;17.23;6.68;;;0.40;99.90;;;;;;4975807;28;20049;-84
2021/12/23 12:17:24;;;;;;;32.00;9.48;;;0.40;99.90;;;;;;4975914;28;20050;-84
2021/12/23 12:19:57;;;;;;;6.53;4.13;;;0.40;99.90;;;;;;4979725;28;20047;-84
2021/12/23 12:23:22;;;;;;;5.93;5.22;;;0.40;99.90;;;;;;4979906;28;20061;-85
2021/12/23 12:25:56;;;;;;;8.80;5.45;;;0.40;99.90;;;;;;4902485;29;20052;-83
2021/12/23 12:28:23;;;;;;;7.25;6.72;;;0.40;99.90;;;;;;4902523;29;20115;-84
2021/12/23 12:30:52;;;;;;;5.93;5.57;;;0.40;99.90;;;;;;4902762;29;20505;-84
2021/12/23 12:33:23;;;;;;;8.02;4.63;;;0.50;99.90;;;;;;4903232;29;20052;-89
2021/12/23 12:35:58;;;;;;;6.40;5.93;;;0.40;99.90;;;;;;4935540;29;20048;-86
2021/12/23 12:38:26;;;;;;;5.43;4.70;;;0.50;99.90;;;;;;4918665;29;20068;-85
2021/12/23 12:41:05;;;;;;;12.63;11.68;;;0.50;99.90;;;;;;4934017;29;20059;-84
2021/12/23 12:43:43;;;;;;;3.53;2.13;;;0.50;99.90;;;;;;4902739;29;20059;-85
2021/12/23 12:46:12;;;;;;;12.30;7.18;;;0.50;99.90;;;;;;4903479;29;20064;-85
2021/12/23 12:48:56;;;;;;;6.88;4.57;;;0.60;99.90;;;;;;4917903;29;20489;-83
2021/12/23 12:51:28;;;;;;;31.20;6.30;;;0.50;99.90;;;;;;4917769;29;20052;-84
2021/12/23 12:54:03;;;;;;;5.90;4.35;;;0.60;99.90;;;;;;4917809;29;20382;-83
2021/12/23 12:56:31;;;;;;;4.65;4.20;;;0.60;99.90;;;;;;4939699;28;20050;-84
2021/12/23 12:58:56;;;;;;;7.07;4.65;;;0.50;99.90;;;;;;4963005;28;20056;-83
2021/12/23 13:01:42;;;;;;;2.58;1.88;;;0.60;99.90;;;;;;4979081;28;20133;-83
2021/12/23 13:04:44;;;;;;;9.00;6.55;;;0.60;99.90;;;;;;4979128;28;20133;-84
2021/12/23 13:07:30;;;;;;;4.53;4.07;;;0.60;99.90;;;;;;4995384;28;20090;-84
2021/12/23 13:10:12;;;;;;;1.00;1.00;;;0.60;99.90;;;;;;4995447;28;20478;-85
2021/12/23 13:12:46;;;;;;;6.53;6.13;;;0.70;99.90;;;;;;4995439;28;20522;-84
2021/12/23 13:15:24;;;;;;;6.05;3.72;;;0.70;99.90;;;;;;4995503;28;20050;-88
2021/12/23 13:18:10;;;;;;;4.90;4.50;;;0.70;99.90;;;;;;4995011;28;20042;-84
2021/12/23 13:20:49;;;;;;;17.98;4.70;;;0.70;99.90;;;;;;4978849;28;20050;-83
2021/12/23 13:23:59;;;;;;;5.60;2.17;;;0.70;99.90;;;;;;4995582;28;20376;-84
2021/12/23 13:26:25;;;;;;;5.97;4.00;;;0.70;99.90;;;;;;4920093;29;20051;-85
2021/12/23 13:28:55;;;;;;;7.50;3.55;;;0.70;99.90;;;;;;4903981;29;20043;-82
2021/12/23 13:31:22;;;;;;;9.82;8.30;;;0.70;99.90;;;;;;4920062;29;20055;-82
2021/12/23 13:33:57;;;;;;;2.40;2.28;;;0.70;99.90;;;;;;4936116;29;20540;-85
2021/12/23 13:36:46;;;;;;;5.20;4.03;;;0.70;99.90;;;;;;4936026;29;20043;-83
2021/12/23 13:39:24;;;;;;;10.90;5.40;;;0.70;99.90;;;;;;4919942;29;20087;-85
2021/12/23 13:41:55;;;;;;;2.95;2.85;;;0.70;99.90;;;;;;4935974;29;20075;-85
2021/12/23 13:44:25;;;;;;;13.23;4.75;;;0.70;99.90;;;;;;4936129;29;20111;-87
2021/12/23 13:47:09;;;;;;;11.90;6.20;;;0.70;99.90;;;;;;4935870;29;20043;-87
2021/12/23 13:49:46;;;;;;;4.47;4.25;;;0.70;99.90;;;;;;4920474;29;20059;-85
2021/12/23 13:52:26;;;;;;;3.50;3.40;;;0.60;99.90;;;;;;4920362;29;20046;-87
2021/12/23 13:55:06;;;;;;;6.57;3.40;;;0.70;99.90;;;;;;4936006;29;20048;-84
2021/12/23 13:57:41;;;;;;;11.02;4.10;;;0.70;99.90;;;;;;4970919;28;20058;-87
2021/12/23 14:00:30;;;;;;;3.67;3.10;;;0.70;99.90;;;;;;4995899;28;20042;-85
2021/12/23 14:03:15;;;;;;;5.55;3.83;;;0.70;99.90;;;;;;4995567;28;20573;-86
2021/12/23 14:05:42;;;;;;;4.53;4.22;;;0.60;99.90;;;;;;4997972;28;20061;-87
2021/12/23 14:08:11;;;;;;;5.00;4.65;;;0.60;99.90;;;;;;5014506;28;20050;-87